Time;durP1;ratioP1;P1;durP2;ratioP2;P2;SDS_P1;SDS_P2;PMS_P1;PMS_P2;Temp;Humidity;BMP_temperature;BMP_pressure;BME280_temperature;BME280_humidity;BME280_pressure;Samples;Min_cycle;Max_cycle;Signal;HPM_P1;HPM_P2
2022/12/12 00:01:17;;;;;;;5.97;5.47;;;18.30;60.60;;;;;;5060502;28;20454;-74
2022/12/12 00:03:45;;;;;;;6.20;5.60;;;18.30;60.60;;;;;;5061359;28;20800;-73
2022/12/12 00:06:14;;;;;;;6.73;6.13;;;18.20;60.50;;;;;;5072491;28;20456;-74
2022/12/12 00:08:42;;;;;;;5.33;4.83;;;18.20;60.40;;;;;;5068926;28;20489;-73
2022/12/12 00:11:11;;;;;;;6.53;5.30;;;18.20;60.40;;;;;;5065425;28;20496;-74
2022/12/12 00:13:40;;;;;;;6.37;5.87;;;18.20;60.50;;;;;;5057153;28;20456;-74
2022/12/12 00:16:09;;;;;;;6.00;5.50;;;18.20;60.60;;;;;;5048651;28;20518;-74
2022/12/12 00:18:39;;;;;;;6.43;5.83;;;18.20;60.50;;;;;;5056782;28;20473;-73
2022/12/12 00:21:12;;;;;;;5.73;5.23;;;18.20;60.40;;;;;;5055373;28;20510;-73
2022/12/12 00:23:41;;;;;;;8.13;6.10;;;18.20;60.30;;;;;;5054738;28;20486;-73
2022/12/12 00:26:17;;;;;;;6.60;4.97;;;18.30;60.20;;;;;;5057641;28;20508;-74
2022/12/12 00:28:46;;;;;;;5.67;5.17;;;18.30;60.20;;;;;;5054888;28;20553;-74
2022/12/12 00:31:15;;;;;;;6.30;5.80;;;18.30;60.10;;;;;;5055602;28;20478;-73
2022/12/12 00:33:46;;;;;;;5.53;5.13;;;18.30;60.10;;;;;;5058426;28;20546;-74
2022/12/12 00:36:15;;;;;;;5.90;5.40;;;18.30;60.00;;;;;;5055984;28;20455;-74
2022/12/12 00:38:43;;;;;;;6.30;5.70;;;18.30;60.00;;;;;;5062020;28;20448;-73
2022/12/12 00:41:12;;;;;;;6.87;6.10;;;18.30;60.00;;;;;;5054114;28;20585;-74
2022/12/12 00:43:41;;;;;;;6.10;4.90;;;18.30;59.90;;;;;;5053412;28;20546;-74
2022/12/12 00:46:12;;;;;;;5.23;4.83;;;18.30;59.90;;;;;;5059480;28;20545;-74
2022/12/12 00:48:41;;;;;;;6.37;5.77;;;18.30;59.80;;;;;;5055738;28;20901;-73
2022/12/12 00:51:15;;;;;;;7.13;5.37;;;18.30;59.90;;;;;;5057982;28;20455;-74
2022/12/12 00:53:43;;;;;;;5.27;4.77;;;18.30;59.70;;;;;;5056438;28;20494;-74
2022/12/12 00:56:11;;;;;;;5.30;4.80;;;18.20;59.70;;;;;;5056205;28;20549;-73
2022/12/12 00:58:40;;;;;;;5.23;4.83;;;18.30;59.70;;;;;;5058136;28;20470;-73
2022/12/12 01:01:10;;;;;;;5.37;4.97;;;18.30;59.60;;;;;;5054637;28;20570;-73
2022/12/12 01:03:41;;;;;;;4.83;4.43;;;18.20;59.60;;;;;;5053013;28;20874;-74
2022/12/12 01:06:11;;;;;;;5.63;5.10;;;18.30;59.60;;;;;;5056757;28;20454;-74
2022/12/12 01:08:40;;;;;;;5.17;4.67;;;18.20;59.60;;;;;;5063684;28;20438;-74
2022/12/12 01:11:10;;;;;;;5.63;5.10;;;18.20;59.50;;;;;;5069429;28;20436;-73
2022/12/12 01:13:39;;;;;;;5.97;5.13;;;18.20;59.50;;;;;;5056170;28;20485;-73
2022/12/12 01:16:08;;;;;;;5.30;4.83;;;18.20;59.50;;;;;;5053760;28;20445;-74
2022/12/12 01:18:37;;;;;;;5.40;4.93;;;18.20;59.50;;;;;;5073345;28;20446;-73
2022/12/12 01:21:09;;;;;;;5.60;5.20;;;18.20;59.40;;;;;;5076599;28;20476;-75
2022/12/12 01:23:39;;;;;;;5.20;4.70;;;18.20;59.40;;;;;;5075476;28;20510;-74
2022/12/12 01:26:10;;;;;;;4.93;4.63;;;18.20;59.30;;;;;;5076622;28;20898;-73
2022/12/12 01:28:39;;;;;;;5.67;5.17;;;18.20;59.40;;;;;;5067151;28;20500;-74
2022/12/12 01:31:08;;;;;;;5.53;4.70;;;18.20;59.30;;;;;;5058337;28;20450;-74
2022/12/12 01:33:37;;;;;;;6.07;5.47;;;18.20;59.30;;;;;;5073163;28;20481;-74
2022/12/12 01:36:06;;;;;;;4.80;4.40;;;18.20;59.20;;;;;;5075078;28;20458;-73
2022/12/12 01:38:34;;;;;;;6.63;5.97;;;18.20;59.20;;;;;;5074290;28;20462;-73
2022/12/12 01:41:04;;;;;;;4.70;4.30;;;18.20;59.20;;;;;;5085194;28;20516;-73
2022/12/12 01:43:32;;;;;;;6.10;4.83;;;18.20;59.20;;;;;;5093484;28;20460;-73
2022/12/12 01:46:35;;;;;;;5.77;5.30;;;18.20;59.20;;;;;;5068427;28;20491;-73
2022/12/12 01:49:12;;;;;;;5.93;5.33;;;18.20;59.10;;;;;;5057447;28;20550;-74
2022/12/12 01:51:42;;;;;;;4.80;4.40;;;18.20;59.10;;;;;;5055129;28;20439;-74
2022/12/12 01:54:13;;;;;;;6.93;5.13;;;18.10;59.10;;;;;;5055597;28;20465;-73
2022/12/12 01:56:45;;;;;;;5.47;5.07;;;18.10;59.00;;;;;;5056454;28;20486;-73
2022/12/12 01:59:17;;;;;;;6.43;5.50;;;18.10;59.00;;;;;;5074714;28;20944;-74
2022/12/12 02:01:45;;;;;;;5.80;4.70;;;18.10;59.00;;;;;;5075852;28;20470;-73
2022/12/12 02:04:16;;;;;;;6.17;5.67;;;18.10;59.00;;;;;;5095943;28;20444;-74
2022/12/12 02:06:45;;;;;;;4.80;4.50;;;18.10;58.90;;;;;;5059021;28;20859;-74
2022/12/12 02:09:15;;;;;;;5.50;5.00;;;18.10;58.90;;;;;;5079035;28;20493;-74
2022/12/12 02:11:47;;;;;;;5.50;5.07;;;18.10;58.90;;;;;;5095885;28;20540;-73
2022/12/12 02:14:19;;;;;;;5.93;5.40;;;18.10;58.90;;;;;;5094717;28;20521;-73
2022/12/12 02:17:09;;;;;;;5.20;4.70;;;18.10;58.90;;;;;;5081988;28;20458;-73
2022/12/12 02:20:11;;;;;;;5.30;4.87;;;18.10;58.90;;;;;;5054183;28;20534;-73
2022/12/12 02:22:58;;;;;;;5.33;4.93;;;18.10;58.90;;;;;;5022722;28;20451;-73
2022/12/12 02:25:51;;;;;;;6.07;5.37;;;18.10;58.80;;;;;;5060336;28;20957;-74
2022/12/12 02:29:15;;;;;;;4.90;4.50;;;18.10;58.80;;;;;;5065284;28;20454;-73
2022/12/12 02:31:52;;;;;;;5.87;5.17;;;18.10;58.80;;;;;;5014329;28;20496;-74
2022/12/12 02:34:31;;;;;;;5.20;4.70;;;18.10;58.70;;;;;;5030155;28;20451;-73
2022/12/12 02:37:07;;;;;;;5.40;4.90;;;18.10;58.70;;;;;;5044467;28;20556;-73
2022/12/12 02:39:41;;;;;;;5.27;4.87;;;18.00;58.70;;;;;;5074852;28;20458;-73
2022/12/12 02:42:21;;;;;;;5.63;5.23;;;18.00;58.70;;;;;;5075008;28;20572;-73
2022/12/12 02:44:56;;;;;;;5.30;4.90;;;18.00;58.70;;;;;;5065296;28;20541;-73
2022/12/12 02:47:30;;;;;;;5.77;5.30;;;18.00;58.60;;;;;;5060715;28;20513;-73
2022/12/12 02:50:03;;;;;;;5.70;5.23;;;18.00;58.60;;;;;;5074001;28;20450;-73
2022/12/12 02:52:32;;;;;;;4.57;4.27;;;18.00;58.50;;;;;;5074943;28;20473;-73
2022/12/12 02:55:01;;;;;;;4.90;4.60;;;18.00;58.50;;;;;;5057682;28;20541;-73
2022/12/12 02:57:29;;;;;;;6.37;5.80;;;18.00;58.50;;;;;;5061742;28;20454;-74
2022/12/12 03:00:00;;;;;;;6.23;5.83;;;18.00;58.50;;;;;;5065814;28;20534;-73
2022/12/12 03:07:45;;;;;;;5.27;4.87;;;18.00;58.50;;;;;;5054015;28;21020;-73
2022/12/12 03:08:56;;;;;;;5.07;4.57;;;18.00;58.40;;;;;;5060647;28;20463;-73
2022/12/12 03:11:41;;;;;;;6.80;5.40;;;18.00;58.40;;;;;;5057386;28;20546;-73
2022/12/12 03:14:15;;;;;;;5.60;5.20;;;18.00;58.40;;;;;;5056569;28;20870;-73
2022/12/12 03:16:50;;;;;;;6.20;5.70;;;18.00;58.40;;;;;;5061370;28;20483;-73
2022/12/12 03:19:29;;;;;;;5.70;5.20;;;18.00;58.40;;;;;;5073902;28;20442;-73
2022/12/12 03:22:01;;;;;;;5.70;5.30;;;18.00;58.30;;;;;;5073746;28;20521;-73
2022/12/12 03:24:34;;;;;;;6.27;5.70;;;18.00;58.30;;;;;;5073925;28;20468;-73
2022/12/12 03:27:07;;;;;;;5.77;5.27;;;18.00;58.30;;;;;;5068920;28;20463;-74
2022/12/12 03:29:40;;;;;;;6.23;5.43;;;18.00;58.20;;;;;;5061424;28;20887;-73
2022/12/12 03:32:14;;;;;;;5.30;4.80;;;18.00;58.20;;;;;;5071975;28;20446;-73
2022/12/12 03:34:47;;;;;;;5.40;5.00;;;18.00;58.20;;;;;;5053311;28;20983;-74
2022/12/12 03:37:20;;;;;;;5.33;4.83;;;18.00;58.20;;;;;;5067562;28;20487;-73
2022/12/12 03:39:53;;;;;;;6.17;5.57;;;18.00;58.20;;;;;;5065809;28;20477;-73
2022/12/12 03:42:25;;;;;;;5.90;5.30;;;18.00;58.10;;;;;;5067846;28;20470;-73
2022/12/12 03:44:58;;;;;;;6.30;5.70;;;17.90;58.10;;;;;;5060976;28;20530;-73
2022/12/12 03:47:30;;;;;;;6.20;5.60;;;17.90;58.10;;;;;;5059680;28;20481;-73
2022/12/12 03:50:06;;;;;;;5.37;4.97;;;17.90;58.00;;;;;;5073116;28;20458;-73
2022/12/12 03:52:37;;;;;;;5.80;5.33;;;17.90;58.00;;;;;;5072235;28;20568;-74
2022/12/12 03:55:12;;;;;;;5.80;5.30;;;17.90;58.00;;;;;;5053530;28;20983;-74
2022/12/12 03:57:47;;;;;;;5.20;4.87;;;17.90;58.00;;;;;;5064661;28;20833;-74
2022/12/12 04:00:17;;;;;;;5.63;5.13;;;17.90;58.00;;;;;;5073112;28;20450;-74
2022/12/12 04:02:50;;;;;;;6.40;5.77;;;17.90;57.90;;;;;;5072158;28;20482;-73
2022/12/12 04:05:24;;;;;;;6.10;5.60;;;17.90;57.90;;;;;;5071123;28;20450;-74
2022/12/12 04:07:57;;;;;;;7.07;6.37;;;17.90;57.90;;;;;;5072422;28;20469;-73
2022/12/12 04:13:27;;;;;;;5.53;5.13;;;17.90;57.80;;;;;;5057295;28;20494;-73
2022/12/12 04:16:04;;;;;;;5.07;4.60;;;17.90;57.90;;;;;;5052528;28;20467;-73
2022/12/12 04:18:43;;;;;;;5.90;5.40;;;17.90;57.80;;;;;;5052628;28;20443;-73
2022/12/12 04:24:20;;;;;;;5.30;4.80;;;17.90;57.70;;;;;;5052768;28;20539;-73
2022/12/12 04:26:52;;;;;;;5.50;5.00;;;17.90;57.80;;;;;;5058043;28;20807;-73
2022/12/12 04:29:31;;;;;;;5.97;5.43;;;17.90;57.70;;;;;;5055769;28;20469;-74
2022/12/12 04:32:07;;;;;;;6.30;5.70;;;17.90;57.70;;;;;;5064553;28;20494;-73
2022/12/12 04:34:41;;;;;;;6.20;5.67;;;17.90;57.70;;;;;;5064979;28;20526;-73
2022/12/12 04:37:15;;;;;;;6.07;5.47;;;17.90;57.60;;;;;;5062337;28;20512;-73
2022/12/12 04:39:46;;;;;;;5.07;4.67;;;17.90;57.60;;;;;;5059510;28;20445;-73
2022/12/12 04:42:20;;;;;;;5.60;5.20;;;17.90;57.60;;;;;;5072394;28;20552;-73
2022/12/12 04:44:52;;;;;;;5.30;4.80;;;17.90;57.60;;;;;;5051480;28;20849;-73
2022/12/12 04:47:21;;;;;;;6.07;5.47;;;17.80;57.60;;;;;;5052750;28;20471;-73
2022/12/12 04:49:53;;;;;;;5.93;5.43;;;17.90;57.60;;;;;;5058570;28;21203;-73
2022/12/12 04:52:25;;;;;;;5.73;5.23;;;17.80;57.60;;;;;;5071968;28;20488;-73
2022/12/12 04:55:02;;;;;;;5.77;5.27;;;17.80;57.60;;;;;;5052571;28;20447;-73
2022/12/12 04:57:38;;;;;;;5.87;5.40;;;17.80;57.60;;;;;;5064682;28;20488;-73
2022/12/12 05:00:08;;;;;;;6.23;5.67;;;17.80;57.50;;;;;;5090908;28;21118;-73
2022/12/12 05:02:44;;;;;;;5.93;5.53;;;17.80;57.50;;;;;;5058444;28;20566;-73
2022/12/12 05:05:18;;;;;;;5.20;4.70;;;17.80;57.40;;;;;;5056910;28;20859;-73
2022/12/12 05:07:53;;;;;;;5.97;5.47;;;17.80;57.40;;;;;;5061236;28;20451;-73
2022/12/12 05:10:22;;;;;;;5.67;5.23;;;17.80;57.40;;;;;;5063883;28;20499;-74
2022/12/12 05:12:53;;;;;;;5.40;4.90;;;17.80;57.40;;;;;;5064633;28;20450;-73
2022/12/12 05:15:22;;;;;;;5.77;5.27;;;17.80;57.30;;;;;;5054007;28;20438;-74
2022/12/12 05:17:58;;;;;;;5.50;5.00;;;17.80;57.30;;;;;;5062780;28;20447;-74
2022/12/12 05:20:26;;;;;;;6.13;5.53;;;17.80;57.30;;;;;;5057077;28;20473;-73
2022/12/12 05:22:56;;;;;;;5.63;5.13;;;17.80;57.30;;;;;;5054783;28;20577;-73
2022/12/12 05:25:24;;;;;;;5.70;5.10;;;17.80;57.30;;;;;;5059389;28;20461;-73
2022/12/12 05:27:52;;;;;;;5.40;5.00;;;17.80;57.30;;;;;;5059310;28;20530;-74
2022/12/12 05:30:21;;;;;;;5.20;4.70;;;17.80;57.20;;;;;;5057117;28;20922;-73
2022/12/12 05:32:52;;;;;;;5.10;4.60;;;17.80;57.20;;;;;;5060842;28;20450;-74
2022/12/12 05:35:21;;;;;;;5.33;4.83;;;17.80;57.20;;;;;;5057436;28;20461;-73
2022/12/12 05:37:49;;;;;;;5.13;4.73;;;17.80;57.20;;;;;;5055079;28;20538;-74
2022/12/12 05:40:21;;;;;;;5.93;5.33;;;17.80;57.20;;;;;;5059956;28;20517;-74
2022/12/12 05:42:50;;;;;;;5.20;4.80;;;17.80;57.10;;;;;;5056191;28;20569;-71
2022/12/12 05:45:19;;;;;;;5.73;5.23;;;17.80;57.10;;;;;;5058264;28;20460;-71
2022/12/12 05:47:47;;;;;;;5.80;5.23;;;17.80;57.70;;;;;;5078130;28;20475;-71
2022/12/12 05:50:15;;;;;;;5.73;5.00;;;17.80;57.80;;;;;;5057660;28;20486;-74
2022/12/12 05:52:43;;;;;;;5.17;4.60;;;17.80;58.20;;;;;;5061413;28;20462;-73
2022/12/12 05:55:12;;;;;;;6.30;5.70;;;17.80;58.50;;;;;;5054895;28;20489;-71
2022/12/12 05:57:42;;;;;;;5.70;4.80;;;17.80;58.70;;;;;;5057664;28;20462;-71
2022/12/12 06:00:11;;;;;;;5.60;5.10;;;17.80;58.60;;;;;;5063851;28;20481;-71
2022/12/12 06:02:39;;;;;;;10.57;5.60;;;17.80;58.60;;;;;;5063990;28;20564;-70
2022/12/12 06:05:08;;;;;;;5.40;4.90;;;17.80;58.60;;;;;;5054582;28;20872;-72
2022/12/12 06:07:36;;;;;;;5.00;4.60;;;17.80;58.50;;;;;;5062898;28;20501;-71
2022/12/12 06:10:06;;;;;;;6.23;4.93;;;17.80;58.60;;;;;;5056019;28;21186;-71
2022/12/12 06:12:34;;;;;;;5.87;5.30;;;17.80;58.60;;;;;;5064381;28;20879;-72
2022/12/12 06:15:04;;;;;;;6.70;5.30;;;17.80;58.60;;;;;;5061215;28;20515;-72
2022/12/12 06:17:32;;;;;;;5.30;4.80;;;17.80;58.70;;;;;;5068233;28;20524;-71
2022/12/12 06:20:01;;;;;;;5.90;5.40;;;17.80;58.80;;;;;;5065009;28;20481;-71
2022/12/12 06:22:29;;;;;;;5.03;4.63;;;17.80;58.90;;;;;;5068567;28;20565;-75
2022/12/12 06:24:57;;;;;;;5.10;4.70;;;17.80;58.90;;;;;;5063135;28;20469;-74
2022/12/12 06:27:25;;;;;;;5.87;5.37;;;17.80;58.80;;;;;;5057511;28;20445;-74
2022/12/12 06:29:53;;;;;;;5.77;5.20;;;17.80;58.60;;;;;;5059279;28;20448;-74
2022/12/12 06:32:23;;;;;;;6.57;5.40;;;17.80;58.60;;;;;;5059982;28;20454;-75
2022/12/12 06:34:52;;;;;;;10.13;5.27;;;17.80;58.60;;;;;;5059759;28;20462;-75
2022/12/12 06:37:20;;;;;;;5.73;5.13;;;17.80;58.50;;;;;;5057329;28;20549;-72
2022/12/12 06:39:48;;;;;;;5.30;4.83;;;17.80;58.20;;;;;;5058408;28;20454;-73
2022/12/12 06:42:16;;;;;;;5.80;5.20;;;17.80;58.10;;;;;;5070687;28;20481;-75
2022/12/12 06:44:45;;;;;;;10.00;6.70;;;17.80;58.10;;;;;;5072681;28;20554;-73
2022/12/12 06:47:13;;;;;;;10.10;6.73;;;17.80;58.60;;;;;;5069031;28;20484;-75
2022/12/12 06:49:42;;;;;;;10.20;6.50;;;17.80;58.60;;;;;;5073925;28;20438;-75
2022/12/12 06:52:11;;;;;;;6.90;5.40;;;17.80;58.50;;;;;;5061182;28;20640;-75
2022/12/12 06:54:39;;;;;;;8.40;5.60;;;17.80;58.70;;;;;;5058893;28;20486;-75
2022/12/12 06:57:08;;;;;;;6.40;4.60;;;17.80;58.80;;;;;;5057864;28;20455;-74
2022/12/12 06:59:36;;;;;;;6.70;5.10;;;17.80;58.80;;;;;;5053126;28;20469;-75
2022/12/12 07:02:04;;;;;;;7.23;5.07;;;17.80;58.70;;;;;;5068203;28;20445;-75
2022/12/12 07:04:32;;;;;;;5.10;4.60;;;17.80;58.70;;;;;;5066668;28;20505;-74
2022/12/12 07:07:02;;;;;;;6.37;5.03;;;17.80;58.70;;;;;;5058839;28;20581;-74
2022/12/12 07:09:30;;;;;;;5.90;5.30;;;17.80;58.70;;;;;;5057947;28;20486;-75
2022/12/12 07:11:58;;;;;;;7.87;5.50;;;17.80;58.70;;;;;;5064126;28;20912;-75
2022/12/12 07:14:27;;;;;;;6.07;5.37;;;17.80;58.70;;;;;;5057683;28;20547;-75
2022/12/12 07:16:55;;;;;;;7.77;5.40;;;17.80;58.70;;;;;;5068765;28;20439;-75
2022/12/12 07:19:24;;;;;;;5.50;4.97;;;17.80;58.60;;;;;;5077425;28;20544;-75
2022/12/12 07:21:52;;;;;;;7.10;4.47;;;17.80;58.60;;;;;;5049686;28;20534;-75
2022/12/12 07:24:22;;;;;;;5.57;5.00;;;17.80;58.60;;;;;;5072986;28;20568;-75
2022/12/12 07:26:50;;;;;;;6.83;5.53;;;17.90;58.40;;;;;;5069391;28;20529;-74
2022/12/12 07:29:18;;;;;;;6.27;5.67;;;17.90;58.40;;;;;;5064279;28;20442;-75
2022/12/12 07:31:51;;;;;;;7.10;5.80;;;17.90;58.40;;;;;;5069495;28;20550;-75
2022/12/12 07:34:20;;;;;;;5.83;5.33;;;17.90;58.40;;;;;;5080804;28;20890;-75
2022/12/12 07:36:48;;;;;;;6.50;5.60;;;17.90;58.30;;;;;;5069564;28;20561;-74
2022/12/12 07:39:16;;;;;;;5.40;4.90;;;17.90;58.30;;;;;;5066236;28;20465;-75
2022/12/12 07:41:49;;;;;;;5.50;4.97;;;17.90;58.30;;;;;;5055119;28;20489;-75
2022/12/12 07:44:21;;;;;;;8.13;6.50;;;17.90;58.30;;;;;;5048580;28;20897;-74
2022/12/12 07:46:49;;;;;;;4.40;3.90;;;17.90;58.20;;;;;;5062472;28;20997;-74
2022/12/12 07:49:18;;;;;;;6.60;5.03;;;17.90;58.20;;;;;;5064189;28;20459;-75
2022/12/12 07:51:46;;;;;;;5.80;4.83;;;17.90;58.20;;;;;;5064884;28;20462;-74
2022/12/12 07:54:16;;;;;;;6.17;4.93;;;17.90;58.10;;;;;;5060232;28;21030;-74
2022/12/12 07:56:45;;;;;;;6.50;5.20;;;17.90;58.10;;;;;;5058176;28;20489;-75
2022/12/12 07:59:16;;;;;;;6.10;5.50;;;17.90;58.00;;;;;;5059502;28;20943;-75
2022/12/12 08:01:44;;;;;;;5.53;4.87;;;17.90;58.00;;;;;;5058502;28;20447;-75
2022/12/12 08:04:12;;;;;;;5.50;5.00;;;17.90;58.00;;;;;;5042144;28;20907;-75
2022/12/12 08:06:41;;;;;;;5.70;5.20;;;17.90;58.00;;;;;;5061223;28;20506;-75
2022/12/12 08:09:09;;;;;;;8.97;6.00;;;17.90;58.20;;;;;;5066109;28;20483;-77
2022/12/12 08:11:39;;;;;;;6.10;4.57;;;17.90;58.20;;;;;;5061901;28;20486;-74
2022/12/12 08:14:15;;;;;;;5.53;5.00;;;17.90;58.10;;;;;;5064333;28;20828;-76
2022/12/12 08:16:46;;;;;;;5.40;4.90;;;17.90;58.10;;;;;;5070875;28;20454;-77
2022/12/12 08:19:14;;;;;;;6.33;4.77;;;17.90;58.00;;;;;;5064375;28;20486;-79
2022/12/12 08:21:45;;;;;;;4.90;4.43;;;17.90;58.00;;;;;;5067932;28;20966;-79
2022/12/12 08:24:15;;;;;;;5.27;4.77;;;17.90;58.00;;;;;;5064804;28;20472;-77
2022/12/12 08:26:44;;;;;;;5.83;5.30;;;18.00;58.00;;;;;;5062480;28;20827;-78
2022/12/12 08:29:13;;;;;;;5.03;4.50;;;18.00;58.10;;;;;;5060522;28;20537;-78
2022/12/12 08:31:44;;;;;;;5.40;4.67;;;18.00;57.90;;;;;;5068912;28;20941;-76
2022/12/12 08:34:12;;;;;;;5.43;4.03;;;18.00;58.00;;;;;;5070618;28;20446;-76
2022/12/12 08:36:40;;;;;;;5.50;5.00;;;18.00;58.00;;;;;;5059088;28;20450;-81
2022/12/12 08:39:11;;;;;;;5.60;5.10;;;18.00;58.20;;;;;;5066558;28;20902;-76
2022/12/12 08:41:41;;;;;;;6.47;5.90;;;18.10;58.10;;;;;;5058762;28;20510;-79
2022/12/12 08:44:11;;;;;;;5.50;5.00;;;18.10;58.10;;;;;;5055594;28;20470;-76
2022/12/12 08:46:40;;;;;;;6.30;4.57;;;18.10;58.00;;;;;;5037541;28;20542;-76
2022/12/12 08:49:10;;;;;;;4.20;3.90;;;18.10;57.80;;;;;;5055081;28;20978;-78
2022/12/12 08:51:39;;;;;;;5.80;5.30;;;18.10;57.70;;;;;;5053907;28;20552;-78
2022/12/12 08:54:07;;;;;;;5.57;4.43;;;18.20;57.80;;;;;;5057613;28;20549;-77
2022/12/12 08:56:35;;;;;;;6.10;4.87;;;18.20;57.80;;;;;;5065832;28;20512;-77
2022/12/12 08:59:04;;;;;;;6.47;5.40;;;18.20;57.80;;;;;;5058294;28;21683;-76
2022/12/12 09:01:33;;;;;;;5.30;4.80;;;18.20;57.60;;;;;;5056691;28;20467;-77
2022/12/12 09:04:01;;;;;;;5.90;4.43;;;18.20;57.60;;;;;;5058701;28;20469;-78
2022/12/12 09:06:31;;;;;;;4.90;4.40;;;18.30;57.60;;;;;;5068017;28;20462;-75
2022/12/12 09:08:59;;;;;;;5.00;4.60;;;18.30;57.50;;;;;;5054736;28;20516;-77
2022/12/12 09:11:28;;;;;;;5.10;4.60;;;18.30;57.50;;;;;;5042122;28;20466;-78
2022/12/12 09:13:56;;;;;;;5.80;5.00;;;18.30;57.40;;;;;;5067397;28;20438;-77
2022/12/12 09:16:26;;;;;;;4.93;4.53;;;18.30;57.40;;;;;;5066455;28;21008;-81
2022/12/12 09:18:54;;;;;;;8.60;6.00;;;18.30;57.30;;;;;;5062670;28;20458;-77
2022/12/12 09:21:23;;;;;;;5.83;5.23;;;18.30;57.30;;;;;;5056193;28;20473;-77
2022/12/12 09:23:52;;;;;;;4.90;4.40;;;18.40;57.20;;;;;;5062816;28;20572;-78
2022/12/12 09:26:22;;;;;;;5.00;4.50;;;18.40;57.20;;;;;;5054723;28;20465;-82
2022/12/12 09:28:51;;;;;;;6.83;4.37;;;18.40;57.20;;;;;;5060741;28;20536;-76
2022/12/12 09:31:19;;;;;;;5.90;4.50;;;18.40;57.10;;;;;;5071523;28;21298;-83
2022/12/12 09:33:49;;;;;;;4.50;4.10;;;18.40;57.10;;;;;;5062846;28;21275;-82
2022/12/12 09:36:17;;;;;;;7.50;5.10;;;18.40;57.10;;;;;;5061575;28;20505;-82
2022/12/12 09:38:45;;;;;;;4.23;3.90;;;18.40;57.10;;;;;;5065892;28;20462;-74
2022/12/12 09:41:18;;;;;;;5.00;4.50;;;18.40;57.10;;;;;;5061974;28;20489;-79
2022/12/12 09:43:54;;;;;;;5.17;4.37;;;18.40;57.00;;;;;;5064090;28;21367;-76
2022/12/12 09:46:29;;;;;;;5.63;4.80;;;18.40;57.20;;;;;;5063187;28;20516;-81
2022/12/12 09:49:13;;;;;;;5.17;4.70;;;18.40;57.10;;;;;;5072201;28;20493;-80
2022/12/12 09:51:45;;;;;;;4.40;4.10;;;18.40;57.10;;;;;;5081938;28;20805;-78
2022/12/12 09:54:16;;;;;;;4.50;4.10;;;18.40;57.10;;;;;;5068665;28;20546;-77
2022/12/12 09:56:57;;;;;;;6.13;5.00;;;18.50;57.00;;;;;;5072911;28;20552;-78
2022/12/12 09:59:33;;;;;;;4.43;4.03;;;18.50;56.90;;;;;;5068466;28;20455;-77
2022/12/12 10:02:12;;;;;;;4.60;4.13;;;18.60;56.80;;;;;;5066246;28;20548;-80
2022/12/12 10:04:50;;;;;;;5.50;4.50;;;18.60;56.80;;;;;;5064982;28;21158;-80
2022/12/12 10:07:25;;;;;;;5.63;5.03;;;18.70;56.70;;;;;;5076971;28;20520;-77
2022/12/12 10:10:02;;;;;;;5.40;4.90;;;18.70;56.50;;;;;;5064463;28;20467;-75
2022/12/12 10:12:33;;;;;;;5.23;4.73;;;18.80;56.50;;;;;;5060731;28;20457;-77
2022/12/12 10:15:04;;;;;;;5.27;4.77;;;18.80;56.40;;;;;;5071716;28;20553;-77
2022/12/12 10:17:36;;;;;;;4.87;4.20;;;18.90;56.20;;;;;;5061479;28;20550;-79
2022/12/12 10:20:12;;;;;;;5.47;4.93;;;19.00;56.10;;;;;;5069633;28;20456;-86
2022/12/12 10:22:48;;;;;;;4.57;4.17;;;19.00;56.00;;;;;;5056231;28;20486;-76
2022/12/12 10:25:21;;;;;;;5.40;5.00;;;19.10;55.80;;;;;;5069357;28;20511;-75
2022/12/12 10:27:55;;;;;;;5.40;4.90;;;19.20;55.70;;;;;;5067879;28;20596;-77
2022/12/12 10:30:23;;;;;;;4.60;4.30;;;19.20;55.60;;;;;;5073893;28;20443;-75
2022/12/12 10:33:14;;;;;;;5.00;4.53;;;19.30;55.60;;;;;;5059858;28;20880;-77
2022/12/12 10:35:51;;;;;;;4.70;4.30;;;19.40;55.40;;;;;;5073903;28;20490;-80
2022/12/12 10:38:33;;;;;;;4.40;4.00;;;19.50;55.20;;;;;;5057153;28;21002;-77
2022/12/12 10:41:10;;;;;;;4.33;4.03;;;19.60;55.10;;;;;;5067191;28;20497;-78
2022/12/12 10:43:45;;;;;;;5.00;4.60;;;19.70;55.10;;;;;;5067445;28;20958;-79
2022/12/12 10:46:20;;;;;;;4.57;4.17;;;19.70;55.00;;;;;;5066752;28;20476;-78
2022/12/12 10:48:49;;;;;;;5.60;3.70;;;19.90;54.90;;;;;;5061120;28;21021;-79
2022/12/12 10:51:21;;;;;;;5.73;4.67;;;19.90;54.90;;;;;;5059095;28;20454;-78
2022/12/12 10:53:49;;;;;;;4.63;4.23;;;20.00;54.80;;;;;;5059185;28;20461;-78
2022/12/12 10:56:21;;;;;;;5.00;4.50;;;20.10;54.60;;;;;;5066930;28;20461;-78
2022/12/12 10:58:56;;;;;;;4.37;3.97;;;20.10;54.50;;;;;;5063863;28;20543;-79
2022/12/12 11:01:28;;;;;;;4.37;4.03;;;20.20;54.50;;;;;;5053429;28;20465;-82
2022/12/12 11:04:16;;;;;;;4.63;4.23;;;20.20;54.40;;;;;;5063406;28;20468;-81
2022/12/12 11:06:48;;;;;;;4.60;4.20;;;20.30;54.10;;;;;;5056347;28;20465;-77
2022/12/12 11:09:19;;;;;;;4.30;3.90;;;20.40;54.10;;;;;;5063883;28;20471;-77
2022/12/12 11:11:59;;;;;;;4.67;4.27;;;20.40;54.00;;;;;;5059346;28;20458;-77
2022/12/12 11:14:34;;;;;;;4.97;4.47;;;20.50;53.90;;;;;;5058611;28;20481;-77
2022/12/12 11:17:20;;;;;;;4.53;4.13;;;20.60;53.80;;;;;;5062430;28;20460;-78
2022/12/12 11:19:49;;;;;;;4.23;3.83;;;20.60;53.70;;;;;;5050738;28;20558;-80
2022/12/12 11:22:17;;;;;;;4.60;4.03;;;20.70;53.60;;;;;;5040711;28;20572;-82
2022/12/12 11:24:49;;;;;;;4.83;4.33;;;20.70;53.40;;;;;;5054766;28;20551;-79
2022/12/12 11:27:23;;;;;;;4.40;4.00;;;20.70;53.40;;;;;;5067304;28;20458;-79
2022/12/12 11:29:55;;;;;;;4.90;4.47;;;20.80;53.50;;;;;;5056531;28;20489;-79
2022/12/12 11:32:27;;;;;;;5.27;4.40;;;20.80;53.50;;;;;;5058271;28;20511;-79
2022/12/12 11:34:58;;;;;;;4.03;3.63;;;20.80;53.40;;;;;;5040535;28;20449;-74
2022/12/12 11:37:28;;;;;;;5.03;4.53;;;20.90;53.40;;;;;;5055041;28;20509;-78
2022/12/12 11:39:57;;;;;;;4.97;4.50;;;20.90;53.40;;;;;;5063355;28;20488;-76
2022/12/12 11:42:28;;;;;;;4.50;3.97;;;20.90;53.20;;;;;;5061325;28;20451;-80
2022/12/12 11:45:01;;;;;;;3.93;3.63;;;21.00;53.30;;;;;;5063414;28;20484;-79
2022/12/12 11:47:37;;;;;;;4.60;4.20;;;21.00;53.20;;;;;;5063956;28;20611;-74
2022/12/12 11:50:21;;;;;;;4.37;4.07;;;21.10;53.20;;;;;;5065402;28;20456;-75
2022/12/12 11:52:51;;;;;;;4.47;4.07;;;21.10;53.10;;;;;;5061567;28;21264;-75
2022/12/12 11:55:29;;;;;;;5.50;3.80;;;21.20;53.00;;;;;;5055571;28;20466;-79
2022/12/12 11:58:10;;;;;;;4.87;4.47;;;21.20;53.00;;;;;;5056748;28;20977;-77
2022/12/12 12:00:45;;;;;;;4.63;4.23;;;21.20;53.00;;;;;;5061083;28;20456;-75
2022/12/12 12:03:29;;;;;;;5.00;4.00;;;21.30;52.90;;;;;;5052049;28;20521;-75
2022/12/12 12:06:09;;;;;;;3.90;3.60;;;21.30;52.90;;;;;;5056702;28;20466;-75
2022/12/12 12:08:50;;;;;;;5.90;4.40;;;21.30;52.60;;;;;;5055031;28;20465;-75
2022/12/12 12:11:29;;;;;;;4.37;3.97;;;21.40;52.50;;;;;;5060984;28;20465;-75
2022/12/12 12:14:14;;;;;;;4.87;4.53;;;21.40;52.50;;;;;;5052943;28;20480;-75
2022/12/12 12:16:54;;;;;;;5.43;5.03;;;21.40;52.30;;;;;;5056460;28;20458;-75
2022/12/12 12:19:29;;;;;;;4.00;3.70;;;21.40;52.30;;;;;;5052071;28;20451;-75
2022/12/12 12:22:07;;;;;;;4.63;4.23;;;21.40;52.20;;;;;;5058918;28;20465;-75
2022/12/12 12:24:48;;;;;;;4.63;4.23;;;21.50;52.20;;;;;;5051936;28;20553;-75
2022/12/12 12:27:24;;;;;;;5.40;4.83;;;21.40;52.10;;;;;;5056580;28;20575;-75
2022/12/12 12:30:15;;;;;;;4.50;4.10;;;21.50;52.10;;;;;;5055551;28;20895;-75
2022/12/12 12:33:00;;;;;;;4.77;4.37;;;21.50;52.20;;;;;;5055341;28;20468;-75
2022/12/12 12:35:30;;;;;;;4.20;3.70;;;21.50;52.10;;;;;;5054447;28;20930;-76
2022/12/12 12:38:22;;;;;;;4.90;4.50;;;21.50;52.10;;;;;;5047031;28;21447;-75
2022/12/12 12:41:06;;;;;;;5.40;4.90;;;21.50;52.00;;;;;;5052374;28;20526;-75
2022/12/12 12:43:46;;;;;;;5.17;4.60;;;21.50;51.90;;;;;;5046734;28;20494;-75
2022/12/12 12:46:22;;;;;;;4.40;4.00;;;21.50;51.90;;;;;;5053486;28;20485;-74
2022/12/12 12:48:57;;;;;;;7.57;4.80;;;21.50;51.70;;;;;;5052222;28;20490;-75
2022/12/12 12:51:31;;;;;;;5.20;4.60;;;21.50;51.60;;;;;;5055222;28;20474;-74
2022/12/12 12:54:05;;;;;;;5.63;3.47;;;21.50;51.50;;;;;;5054785;28;21238;-75
2022/12/12 12:56:38;;;;;;;5.00;4.40;;;21.50;51.30;;;;;;5055663;28;20529;-75
2022/12/12 12:59:16;;;;;;;6.20;3.93;;;21.50;51.40;;;;;;5050887;28;20807;-76
2022/12/12 13:01:47;;;;;;;4.37;3.97;;;21.50;51.50;;;;;;5056345;28;20455;-77
2022/12/12 13:04:21;;;;;;;4.27;3.97;;;21.60;51.60;;;;;;5055832;28;20538;-77
2022/12/12 13:06:53;;;;;;;6.77;4.90;;;21.50;51.80;;;;;;5052487;28;20505;-76
2022/12/12 13:09:30;;;;;;;5.87;4.87;;;21.50;51.80;;;;;;5055033;28;20561;-77
2022/12/12 13:12:03;;;;;;;4.97;4.17;;;21.50;51.90;;;;;;5051614;28;21360;-69
2022/12/12 13:14:42;;;;;;;6.63;4.70;;;21.50;52.00;;;;;;5055454;28;21236;-70
2022/12/12 13:17:16;;;;;;;5.30;4.30;;;21.50;52.20;;;;;;5058900;28;20817;-69
2022/12/12 13:19:49;;;;;;;4.50;4.10;;;21.50;52.40;;;;;;5056881;28;20461;-70
2022/12/12 13:22:28;;;;;;;6.57;4.40;;;21.50;52.70;;;;;;5057129;28;20965;-70